Time;durP1;ratioP1;P1;durP2;ratioP2;P2;SDS_P1;SDS_P2;PMS_P1;PMS_P2;Temp;Humidity;BMP_temperature;BMP_pressure;BME280_temperature;BME280_humidity;BME280_pressure;Samples;Min_cycle;Max_cycle;Signal;HPM_P1;HPM_P2
2023/05/11 00:01:49;;;;;;;;;;;13.10;61.10;;;;;;5093127;28;19904;-84
2023/05/11 00:04:15;;;;;;;;;;;13.10;60.30;;;;;;5092865;28;20002;-84
2023/05/11 00:06:41;;;;;;;;;;;13.20;59.60;;;;;;5091293;28;19908;-84
2023/05/11 00:09:08;;;;;;;;;;;13.30;59.20;;;;;;5092766;28;20004;-84
2023/05/11 00:11:34;;;;;;;;;;;13.40;57.20;;;;;;5092690;28;19904;-84
2023/05/11 00:13:59;;;;;;;;;;;13.50;56.70;;;;;;5092528;28;19904;-83
2023/05/11 00:16:25;;;;;;;;;;;13.60;56.20;;;;;;5092457;28;19918;-84
2023/05/11 00:18:50;;;;;;;;;;;13.70;55.60;;;;;;5093843;28;19912;-84
2023/05/11 00:21:16;;;;;;;;;;;13.80;55.40;;;;;;5093856;28;19977;-85
2023/05/11 00:23:41;;;;;;;;;;;13.80;55.60;;;;;;5092152;28;20761;-84
2023/05/11 00:26:07;;;;;;;;;;;13.70;56.20;;;;;;5093667;28;19904;-84
2023/05/11 00:28:32;;;;;;;;;;;13.70;56.00;;;;;;5092537;28;19904;-84
2023/05/11 00:30:58;;;;;;;;;;;13.70;56.00;;;;;;5093662;28;19904;-84
2023/05/11 00:33:23;;;;;;;;;;;13.70;55.60;;;;;;5093306;28;19908;-84
2023/05/11 00:35:50;;;;;;;;;;;13.70;56.10;;;;;;5091033;28;20356;-84
2023/05/11 00:38:15;;;;;;;;;;;13.70;55.70;;;;;;5092141;28;19904;-84
2023/05/11 00:40:41;;;;;;;;;;;13.60;55.80;;;;;;5093536;28;20352;-83
2023/05/11 00:43:07;;;;;;;;;;;13.60;56.00;;;;;;5092091;28;20399;-85
2023/05/11 00:45:33;;;;;;;;;;;13.60;56.10;;;;;;5092551;28;19904;-84
2023/05/11 00:47:59;;;;;;;;;;;13.60;56.50;;;;;;5093522;28;19908;-84
2023/05/11 00:50:25;;;;;;;;;;;13.50;57.50;;;;;;5092087;28;20612;-84
2023/05/11 00:52:51;;;;;;;;;;;13.50;58.10;;;;;;5092029;28;19908;-84
2023/05/11 00:55:18;;;;;;;;;;;13.40;58.60;;;;;;5092262;28;20391;-84
2023/05/11 00:57:44;;;;;;;;;;;13.40;59.50;;;;;;5091692;28;19915;-84
2023/05/11 01:00:10;;;;;;;;;;;13.30;60.00;;;;;;5089276;28;19908;-84
2023/05/11 01:02:35;;;;;;;;;;;13.30;60.80;;;;;;5090656;28;19918;-83
2023/05/11 01:05:01;;;;;;;;;;;13.20;60.90;;;;;;5091952;28;19920;-84
2023/05/11 01:07:39;;;;;;;;;;;13.20;60.90;;;;;;5090895;28;19904;-84
2023/05/11 01:10:08;;;;;;;;;;;13.20;61.50;;;;;;5091088;28;19904;-83
2023/05/11 01:12:52;;;;;;;;;;;13.10;62.00;;;;;;5091644;28;19911;-84
2023/05/11 01:15:17;;;;;;;;;;;13.10;62.40;;;;;;5091819;28;19908;-84
2023/05/11 01:18:00;;;;;;;;;;;13.10;62.70;;;;;;5090787;28;19930;-83
2023/05/11 01:20:28;;;;;;;;;;;13.10;63.60;;;;;;5094839;28;20706;-84
2023/05/11 01:23:13;;;;;;;;;;;13.00;64.40;;;;;;5095818;28;19915;-84
2023/05/11 01:25:38;;;;;;;;;;;13.00;65.60;;;;;;5095821;28;20384;-85
2023/05/11 01:28:16;;;;;;;;;;;12.90;66.60;;;;;;5097082;28;19957;-85
2023/05/11 01:30:53;;;;;;;;;;;12.90;67.90;;;;;;5095883;28;19930;-84
2023/05/11 01:33:29;;;;;;;;;;;12.80;69.30;;;;;;5095717;28;19911;-84
2023/05/11 01:35:58;;;;;;;;;;;12.80;70.40;;;;;;5095774;28;20007;-84
2023/05/11 01:38:24;;;;;;;;;;;12.70;72.50;;;;;;5095687;28;19949;-84
2023/05/11 01:40:53;;;;;;;;;;;12.70;73.00;;;;;;5096499;28;19911;-84
2023/05/11 01:43:20;;;;;;;;;;;12.60;71.90;;;;;;5094266;28;20385;-84
2023/05/11 01:45:47;;;;;;;;;;;12.70;70.70;;;;;;5095326;28;20379;-84
2023/05/11 01:48:15;;;;;;;;;;;12.70;68.30;;;;;;5096567;28;19907;-85
2023/05/11 01:50:41;;;;;;;;;;;13.10;61.80;;;;;;5095106;28;19963;-84
2023/05/11 01:53:07;;;;;;;;;;;13.30;59.40;;;;;;5096401;28;19913;-83
2023/05/11 01:55:34;;;;;;;;;;;13.40;60.20;;;;;;5095182;28;20016;-84
2023/05/11 01:58:02;;;;;;;;;;;13.50;59.50;;;;;;5096489;28;20449;-84
2023/05/11 02:00:27;;;;;;;;;;;13.50;61.20;;;;;;5096140;28;19904;-84
2023/05/11 02:02:53;;;;;;;;;;;13.50;60.90;;;;;;5094707;28;19908;-84
2023/05/11 02:05:21;;;;;;;;;;;13.40;63.10;;;;;;5094744;28;19916;-84
2023/05/11 02:07:48;;;;;;;;;;;13.30;63.00;;;;;;5095652;28;20436;-84
2023/05/11 02:10:15;;;;;;;;;;;13.20;62.50;;;;;;5096034;28;19904;-84
2023/05/11 02:12:42;;;;;;;;;;;13.10;62.00;;;;;;5094694;28;19904;-84
2023/05/11 02:15:09;;;;;;;;;;;13.10;63.60;;;;;;5096036;28;19904;-84
2023/05/11 02:17:36;;;;;;;;;;;13.00;64.50;;;;;;5094970;28;19904;-84
2023/05/11 02:20:03;;;;;;;;;;;12.90;65.60;;;;;;5094709;28;19904;-84
2023/05/11 02:22:29;;;;;;;;;;;12.80;67.00;;;;;;5094480;28;19916;-84
2023/05/11 02:24:55;;;;;;;;;;;12.80;68.50;;;;;;5094749;28;19978;-83
2023/05/11 02:27:21;;;;;;;;;;;12.70;68.40;;;;;;5095007;28;19922;-84
2023/05/11 02:29:47;;;;;;;;;;;12.70;68.20;;;;;;5094684;28;19904;-85
2023/05/11 02:32:16;;;;;;;;;;;12.60;68.40;;;;;;5094896;28;19912;-85
2023/05/11 02:34:42;;;;;;;;;;;12.60;69.00;;;;;;5094333;28;19931;-84
2023/05/11 02:37:16;;;;;;;;;;;12.50;69.70;;;;;;5094575;28;20003;-84
2023/05/11 02:39:43;;;;;;;;;;;12.50;70.40;;;;;;5094765;28;19916;-84
2023/05/11 02:42:17;;;;;;;;;;;12.40;71.10;;;;;;5094478;28;19904;-84
2023/05/11 02:44:46;;;;;;;;;;;12.30;71.80;;;;;;5094591;28;19971;-84
2023/05/11 02:47:13;;;;;;;;;;;12.30;73.00;;;;;;5092887;28;19961;-84
2023/05/11 02:49:39;;;;;;;;;;;12.30;74.20;;;;;;5094348;28;20711;-84
2023/05/11 02:52:06;;;;;;;;;;;12.20;74.60;;;;;;5094335;28;20336;-84
2023/05/11 02:54:32;;;;;;;;;;;12.20;75.20;;;;;;5093889;28;19931;-84
2023/05/11 02:56:58;;;;;;;;;;;12.20;74.60;;;;;;5093316;28;19939;-84
2023/05/11 02:59:24;;;;;;;;;;;12.20;73.70;;;;;;5094820;28;19926;-84
2023/05/11 03:01:49;;;;;;;;;;;12.20;74.60;;;;;;5094248;28;19903;-84
2023/05/11 03:04:15;;;;;;;;;;;12.20;75.10;;;;;;5100261;28;20024;-85
2023/05/11 03:06:40;;;;;;;;;;;12.20;74.10;;;;;;5107912;28;19935;-84
2023/05/11 03:09:06;;;;;;;;;;;12.30;73.40;;;;;;5107150;28;19904;-84
2023/05/11 03:11:32;;;;;;;;;;;12.30;73.20;;;;;;5104314;28;20364;-83
2023/05/11 03:13:58;;;;;;;;;;;12.30;71.60;;;;;;5094019;28;19999;-84
2023/05/11 03:16:24;;;;;;;;;;;12.40;70.90;;;;;;5094000;28;19908;-84
2023/05/11 03:18:50;;;;;;;;;;;12.50;70.70;;;;;;5093324;28;19921;-84
2023/05/11 03:21:17;;;;;;;;;;;12.50;70.40;;;;;;5091099;28;19908;-84
2023/05/11 03:23:44;;;;;;;;;;;12.50;69.80;;;;;;5093067;28;19916;-85
2023/05/11 03:26:10;;;;;;;;;;;12.60;69.10;;;;;;5093793;28;19908;-84
2023/05/11 03:28:37;;;;;;;;;;;12.60;68.80;;;;;;5092857;28;19908;-84
2023/05/11 03:31:02;;;;;;;;;;;12.70;67.60;;;;;;5092574;28;19904;-85
2023/05/11 03:33:28;;;;;;;;;;;12.70;67.30;;;;;;5093570;28;19908;-84
2023/05/11 03:35:54;;;;;;;;;;;12.70;67.40;;;;;;5092626;28;19908;-84
2023/05/11 03:38:21;;;;;;;;;;;12.80;64.80;;;;;;5093238;28;19927;-84
2023/05/11 03:40:48;;;;;;;;;;;12.80;65.00;;;;;;5092585;28;20435;-85
2023/05/11 03:43:15;;;;;;;;;;;12.80;64.20;;;;;;5091120;28;19911;-84
2023/05/11 03:45:41;;;;;;;;;;;12.80;64.60;;;;;;5091735;28;19908;-84
2023/05/11 03:48:07;;;;;;;;;;;12.80;64.20;;;;;;5091784;28;20017;-85
2023/05/11 03:50:33;;;;;;;;;;;12.80;64.40;;;;;;5094638;28;19911;-82
2023/05/11 03:52:59;;;;;;;;;;;12.80;65.00;;;;;;5092908;28;19908;-83
2023/05/11 03:55:25;;;;;;;;;;;12.70;65.20;;;;;;5091773;28;19926;-84
2023/05/11 03:57:51;;;;;;;;;;;12.70;66.50;;;;;;5091498;28;19908;-85
2023/05/11 04:00:17;;;;;;;;;;;12.70;66.00;;;;;;5091791;28;19947;-84
2023/05/11 04:02:42;;;;;;;;;;;12.70;66.50;;;;;;5091202;28;20380;-85
2023/05/11 04:05:08;;;;;;;;;;;12.70;66.40;;;;;;5092989;28;19954;-84
2023/05/11 04:07:35;;;;;;;;;;;12.70;67.20;;;;;;5091636;28;20365;-85
2023/05/11 04:10:01;;;;;;;;;;;12.70;66.90;;;;;;5091444;28;20276;-83
2023/05/11 04:12:26;;;;;;;;;;;12.70;67.00;;;;;;5091125;28;19911;-84
2023/05/11 04:14:52;;;;;;;;;;;12.80;66.10;;;;;;5091359;28;19904;-84
2023/05/11 04:17:17;;;;;;;;;;;12.80;66.60;;;;;;5091908;28;20433;-83
2023/05/11 04:19:43;;;;;;;;;;;12.90;66.60;;;;;;5090937;28;19910;-83
2023/05/11 04:22:10;;;;;;;;;;;12.90;66.80;;;;;;5092611;28;19915;-83
2023/05/11 04:24:36;;;;;;;;;;;12.80;66.50;;;;;;5090570;28;19916;-84
2023/05/11 04:27:02;;;;;;;;;;;12.80;67.20;;;;;;5090779;28;20000;-84
2023/05/11 04:29:28;;;;;;;;;;;12.70;67.10;;;;;;5090925;28;20003;-83
2023/05/11 04:31:54;;;;;;;;;;;12.80;66.50;;;;;;5091453;28;19955;-83
2023/05/11 04:34:20;;;;;;;;;;;12.80;66.90;;;;;;5091209;28;20395;-85
2023/05/11 04:36:49;;;;;;;;;;;12.70;67.50;;;;;;5090620;28;20386;-83
2023/05/11 04:39:17;;;;;;;;;;;12.80;67.30;;;;;;5091139;28;19904;-83
2023/05/11 04:41:43;;;;;;;;;;;12.90;67.10;;;;;;5090442;28;19907;-84
2023/05/11 04:44:09;;;;;;;;;;;13.00;66.90;;;;;;5090857;28;19916;-84
2023/05/11 04:46:35;;;;;;;;;;;13.10;65.90;;;;;;5090375;28;19911;-83
2023/05/11 04:49:01;;;;;;;;;;;13.20;65.50;;;;;;5090400;28;19955;-84
2023/05/11 04:51:26;;;;;;;;;;;13.10;65.40;;;;;;5090102;28;19963;-84
2023/05/11 04:53:52;;;;;;;;;;;13.10;66.60;;;;;;5089597;28;20257;-84
2023/05/11 04:56:20;;;;;;;;;;;13.00;66.20;;;;;;5091222;28;20508;-85
2023/05/11 04:58:45;;;;;;;;;;;13.00;67.10;;;;;;5091407;28;20364;-84
2023/05/11 05:01:11;;;;;;;;;;;13.00;67.50;;;;;;5090318;28;19912;-86
2023/05/11 05:03:36;;;;;;;;;;;13.00;68.50;;;;;;5091926;28;19916;-85
2023/05/11 05:06:02;;;;;;;;;;;13.10;68.60;;;;;;5091105;28;19924;-84
2023/05/11 05:08:28;;;;;;;;;;;13.20;68.60;;;;;;5090190;28;19904;-85
2023/05/11 05:10:53;;;;;;;;;;;13.30;67.80;;;;;;5090348;28;19904;-84
2023/05/11 05:13:19;;;;;;;;;;;13.50;67.80;;;;;;5090279;28;20353;-85
2023/05/11 05:15:44;;;;;;;;;;;14.10;65.20;;;;;;5090838;28;19957;-84
2023/05/11 05:18:10;;;;;;;;;;;14.40;63.60;;;;;;5090180;28;19926;-85
2023/05/11 05:20:35;;;;;;;;;;;14.40;62.90;;;;;;5089283;28;19904;-85
2023/05/11 05:23:01;;;;;;;;;;;14.50;62.80;;;;;;5089751;28;19912;-86
2023/05/11 05:25:27;;;;;;;;;;;14.60;63.50;;;;;;5090051;28;19916;-86
2023/05/11 05:27:52;;;;;;;;;;;14.60;63.00;;;;;;5090034;28;20376;-85
2023/05/11 05:30:18;;;;;;;;;;;14.60;62.10;;;;;;5090169;28;19919;-85
2023/05/11 05:32:44;;;;;;;;;;;14.70;62.30;;;;;;5090124;28;20017;-85
2023/05/11 05:35:09;;;;;;;;;;;14.80;62.50;;;;;;5090108;28;20372;-84
2023/05/11 05:37:36;;;;;;;;;;;14.90;61.70;;;;;;5091001;28;19908;-84
2023/05/11 05:40:03;;;;;;;;;;;15.10;60.20;;;;;;5089152;28;19981;-84
2023/05/11 05:42:28;;;;;;;;;;;15.20;60.60;;;;;;5089668;28;19908;-84
2023/05/11 05:44:54;;;;;;;;;;;15.40;59.60;;;;;;5090004;28;19957;-84
2023/05/11 05:47:19;;;;;;;;;;;15.70;57.40;;;;;;5089840;28;20348;-85
2023/05/11 05:49:45;;;;;;;;;;;16.10;56.80;;;;;;5090030;28;19908;-86
2023/05/11 05:52:10;;;;;;;;;;;16.50;56.10;;;;;;5089802;28;19930;-85
2023/05/11 05:54:36;;;;;;;;;;;17.20;53.40;;;;;;5090109;28;19969;-86
2023/05/11 05:57:01;;;;;;;;;;;17.70;51.50;;;;;;5098296;28;20362;-83
2023/05/11 05:59:27;;;;;;;;;;;18.00;50.20;;;;;;5100669;28;19904;-86
2023/05/11 06:01:52;;;;;;;;;;;18.40;48.30;;;;;;5089955;28;19925;-84
2023/05/11 06:04:18;;;;;;;;;;;19.10;46.00;;;;;;5091743;28;19970;-86
2023/05/11 06:06:44;;;;;;;;;;;19.60;44.90;;;;;;5094761;28;19959;-86
2023/05/11 06:09:10;;;;;;;;;;;20.00;43.70;;;;;;5093324;28;19904;-85
2023/05/11 06:11:37;;;;;;;;;;;20.50;42.20;;;;;;5094529;28;20003;-85
2023/05/11 06:14:02;;;;;;;;;;;21.20;39.70;;;;;;5093619;28;20276;-86
2023/05/11 06:16:30;;;;;;;;;;;21.30;39.40;;;;;;5093492;28;19908;-86
2023/05/11 06:18:56;;;;;;;;;;;21.70;37.80;;;;;;5093204;28;20300;-85
2023/05/11 06:21:22;;;;;;;;;;;22.00;37.00;;;;;;5093097;28;19908;-86
2023/05/11 06:23:47;;;;;;;;;;;22.20;35.90;;;;;;5093653;28;19998;-86
2023/05/11 06:26:13;;;;;;;;;;;22.40;35.40;;;;;;5094099;28;20413;-86
2023/05/11 06:28:38;;;;;;;;;;;22.80;34.60;;;;;;5092780;28;19908;-87
2023/05/11 06:31:04;;;;;;;;;;;23.00;33.50;;;;;;5094134;28;19904;-87
2023/05/11 06:33:29;;;;;;;;;;;23.10;33.60;;;;;;5092908;28;19910;-85
2023/05/11 06:35:55;;;;;;;;;;;23.30;33.50;;;;;;5092536;28;19904;-85
2023/05/11 06:38:20;;;;;;;;;;;23.10;32.70;;;;;;5092487;28;19947;-86
2023/05/11 06:40:46;;;;;;;;;;;23.20;32.50;;;;;;5092659;28;19904;-85
2023/05/11 06:43:11;;;;;;;;;;;23.50;32.40;;;;;;5093058;28;19939;-85
2023/05/11 06:45:37;;;;;;;;;;;23.50;31.80;;;;;;5091768;28;19904;-86
2023/05/11 06:48:03;;;;;;;;;;;23.00;32.60;;;;;;5091906;28;19956;-85
2023/05/11 06:50:29;;;;;;;;;;;23.50;31.90;;;;;;5091839;28;19912;-86
2023/05/11 06:52:54;;;;;;;;;;;23.40;31.90;;;;;;5091969;28;20364;-85
2023/05/11 06:55:20;;;;;;;;;;;23.20;32.10;;;;;;5092242;28;20258;-85
2023/05/11 06:57:45;;;;;;;;;;;23.40;33.20;;;;;;5091934;28;19908;-84
2023/05/11 07:00:11;;;;;;;;;;;24.10;32.60;;;;;;5091631;28;20238;-86
2023/05/11 07:02:36;;;;;;;;;;;24.50;31.10;;;;;;5092138;28;20280;-87
2023/05/11 07:05:02;;;;;;;;;;;24.70;30.00;;;;;;5091224;28;19912;-86
2023/05/11 07:07:28;;;;;;;;;;;25.00;30.00;;;;;;5091581;28;19904;-86
2023/05/11 07:09:53;;;;;;;;;;;24.70;29.60;;;;;;5091523;28;20372;-84
2023/05/11 07:12:19;;;;;;;;;;;24.70;30.90;;;;;;5092076;28;20418;-83
2023/05/11 07:14:44;;;;;;;;;;;24.70;29.90;;;;;;5091167;28;20002;-83
2023/05/11 07:17:10;;;;;;;;;;;24.60;29.90;;;;;;5091024;28;20344;-84
2023/05/11 07:19:36;;;;;;;;;;;24.50;29.30;;;;;;5091504;28;20004;-83
2023/05/11 07:22:02;;;;;;;;;;;24.70;29.60;;;;;;5091307;28;19912;-85
2023/05/11 07:24:27;;;;;;;;;;;24.90;29.30;;;;;;5092271;28;19916;-84
2023/05/11 07:26:54;;;;;;;;;;;24.80;29.70;;;;;;5092200;28;19954;-85
2023/05/11 07:29:20;;;;;;;;;;;24.70;30.00;;;;;;5091545;28;19904;-84
2023/05/11 07:31:45;;;;;;;;;;;24.90;29.40;;;;;;5090579;28;19908;-84
2023/05/11 07:34:11;;;;;;;;;;;24.50;29.10;;;;;;5090803;28;20377;-85
2023/05/11 07:36:36;;;;;;;;;;;24.40;29.50;;;;;;5090585;28;19908;-84
2023/05/11 07:39:02;;;;;;;;;;;24.40;29.30;;;;;;5092446;28;19948;-85
2023/05/11 07:41:27;;;;;;;;;;;24.50;29.50;;;;;;5091767;28;19954;-85
2023/05/11 07:43:53;;;;;;;;;;;24.30;29.90;;;;;;5092528;28;19961;-83
2023/05/11 07:46:19;;;;;;;;;;;24.40;30.70;;;;;;5092658;28;19946;-86
2023/05/11 07:48:45;;;;;;;;;;;24.90;30.70;;;;;;5091708;28;19924;-84
2023/05/11 07:51:10;;;;;;;;;;;25.10;29.90;;;;;;5090623;28;20418;-84
2023/05/11 07:53:36;;;;;;;;;;;25.30;28.90;;;;;;5090048;28;19908;-84
2023/05/11 07:56:02;;;;;;;;;;;25.20;28.50;;;;;;5090874;28;20006;-84
2023/05/11 07:58:28;;;;;;;;;;;25.20;29.10;;;;;;5090743;28;19907;-85
2023/05/11 08:00:54;;;;;;;;;;;25.50;29.20;;;;;;5089676;28;20276;-84
2023/05/11 08:03:19;;;;;;;;;;;25.60;28.30;;;;;;5089519;28;19916;-85
2023/05/11 08:05:45;;;;;;;;;;;25.50;28.60;;;;;;5090154;28;19976;-85
2023/05/11 08:08:10;;;;;;;;;;;25.00;28.70;;;;;;5090232;28;19904;-84
2023/05/11 08:10:36;;;;;;;;;;;24.60;28.50;;;;;;5090143;28;19915;-85
2023/05/11 08:13:01;;;;;;;;;;;24.30;29.30;;;;;;5090084;28;19912;-84
2023/05/11 08:15:27;;;;;;;;;;;24.10;29.40;;;;;;5090630;28;19908;-84
2023/05/11 08:17:53;;;;;;;;;;;24.50;30.00;;;;;;5090183;28;19921;-83
2023/05/11 08:20:18;;;;;;;;;;;24.20;28.50;;;;;;5090115;28;19942;-87
2023/05/11 08:22:45;;;;;;;;;;;23.70;30.20;;;;;;5089729;28;19916;-84
2023/05/11 08:25:10;;;;;;;;;;;23.70;29.90;;;;;;5090248;28;19934;-86
2023/05/11 08:27:36;;;;;;;;;;;24.00;31.20;;;;;;5089691;28;19908;-87
2023/05/11 08:30:02;;;;;;;;;;;24.20;28.60;;;;;;5090093;28;19912;-87
2023/05/11 08:32:28;;;;;;;;;;;24.30;28.80;;;;;;5089926;28;19915;-87
2023/05/11 08:34:53;;;;;;;;;;;24.30;28.60;;;;;;5090935;28;19915;-85
2023/05/11 08:37:19;;;;;;;;;;;24.10;29.20;;;;;;5090731;28;19904;-83
2023/05/11 08:39:44;;;;;;;;;;;23.20;30.30;;;;;;5090675;28;19908;-84
2023/05/11 08:42:12;;;;;;;;;;;22.80;31.50;;;;;;5089909;28;19911;-85
2023/05/11 08:44:41;;;;;;;;;;;22.70;30.70;;;;;;5090783;28;19915;-83
2023/05/11 08:47:07;;;;;;;;;;;23.10;32.30;;;;;;5089838;28;19904;-85
2023/05/11 08:49:32;;;;;;;;;;;23.50;29.80;;;;;;5094131;28;19908;-85
2023/05/11 08:51:58;;;;;;;;;;;23.60;31.00;;;;;;5093618;28;19915;-86
2023/05/11 08:54:24;;;;;;;;;;;24.00;30.40;;;;;;5091064;28;19908;-87
2023/05/11 08:56:50;;;;;;;;;;;23.70;30.60;;;;;;5089365;28;19908;-87
2023/05/11 08:59:17;;;;;;;;;;;23.70;30.60;;;;;;5089330;28;19911;-87
2023/05/11 09:01:43;;;;;;;;;;;23.70;29.60;;;;;;5090113;28;19911;-85
2023/05/11 09:04:09;;;;;;;;;;;23.60;29.80;;;;;;5088605;28;19998;-85
2023/05/11 09:06:35;;;;;;;;;;;23.70;30.90;;;;;;5088965;28;19995;-86
2023/05/11 09:09:01;;;;;;;;;;;24.00;29.40;;;;;;5090220;28;19912;-86
2023/05/11 09:11:29;;;;;;;;;;;24.00;29.50;;;;;;5089437;28;19915;-85
2023/05/11 09:13:55;;;;;;;;;;;24.20;30.00;;;;;;5089340;28;19998;-85
2023/05/11 09:16:20;;;;;;;;;;;24.50;28.80;;;;;;5088800;28;20023;-86
2023/05/11 09:18:47;;;;;;;;;;;24.50;27.80;;;;;;5089066;28;20339;-84
2023/05/11 09:21:12;;;;;;;;;;;24.80;28.90;;;;;;5089185;28;19957;-86
2023/05/11 09:23:39;;;;;;;;;;;24.90;28.40;;;;;;5090111;28;19928;-86
2023/05/11 09:26:12;;;;;;;;;;;25.10;27.30;;;;;;5089185;28;20296;-84
2023/05/11 09:28:37;;;;;;;;;;;25.10;26.80;;;;;;5088817;28;19904;-85
2023/05/11 09:31:03;;;;;;;;;;;24.90;27.50;;;;;;5089172;28;20360;-86
2023/05/11 09:33:28;;;;;;;;;;;24.90;28.00;;;;;;5089505;28;20413;-85
2023/05/11 09:35:54;;;;;;;;;;;24.70;28.00;;;;;;5088574;28;19948;-85
2023/05/11 09:38:21;;;;;;;;;;;24.30;28.30;;;;;;5089463;28;20368;-86
2023/05/11 09:40:51;;;;;;;;;;;24.40;28.20;;;;;;5091807;28;20364;-84
2023/05/11 09:43:20;;;;;;;;;;;24.30;28.30;;;;;;5093235;28;19916;-86
2023/05/11 09:45:46;;;;;;;;;;;24.00;28.50;;;;;;5092327;28;20407;-84
2023/05/11 09:48:32;;;;;;;;;;;24.30;27.90;;;;;;5092729;28;19911;-86
2023/05/11 09:51:00;;;;;;;;;;;24.20;27.00;;;;;;5093647;28;20357;-84
2023/05/11 09:53:44;;;;;;;;;;;24.20;27.50;;;;;;5092590;28;19908;-85
2023/05/11 09:56:10;;;;;;;;;;;24.50;28.70;;;;;;5092563;28;19915;-85
2023/05/11 09:58:46;;;;;;;;;;;24.60;27.40;;;;;;5092470;28;19904;-84
2023/05/11 10:01:12;;;;;;;;;;;24.30;28.40;;;;;;5092410;28;19959;-83
2023/05/11 10:03:44;;;;;;;;;;;24.00;28.20;;;;;;5092023;28;19934;-82
2023/05/11 10:06:10;;;;;;;;;;;23.60;28.20;;;;;;5091964;28;19908;-84
2023/05/11 10:08:36;;;;;;;;;;;23.00;28.20;;;;;;5093814;28;20284;-84
2023/05/11 10:11:02;;;;;;;;;;;22.40;29.20;;;;;;5092205;28;19908;-84
2023/05/11 10:13:28;;;;;;;;;;;22.00;30.30;;;;;;5092201;28;20352;-84
2023/05/11 10:15:54;;;;;;;;;;;21.90;32.50;;;;;;5092033;28;19904;-85
2023/05/11 10:18:20;;;;;;;;;;;21.80;30.60;;;;;;5091961;28;20485;-84
2023/05/11 10:20:45;;;;;;;;;;;21.60;31.40;;;;;;5091641;28;19908;-85
2023/05/11 10:23:12;;;;;;;;;;;21.50;31.70;;;;;;5091150;28;20067;-84
2023/05/11 10:25:38;;;;;;;;;;;21.50;31.50;;;;;;5091471;28;19915;-83
2023/05/11 10:28:03;;;;;;;;;;;21.50;32.30;;;;;;5092589;28;19911;-84
2023/05/11 10:30:30;;;;;;;;;;;21.30;32.60;;;;;;5091890;28;19904;-83
2023/05/11 10:32:56;;;;;;;;;;;21.30;32.50;;;;;;5092015;28;19995;-85
2023/05/11 10:35:21;;;;;;;;;;;21.30;33.00;;;;;;5092086;28;20432;-85
2023/05/11 10:37:47;;;;;;;;;;;21.30;31.40;;;;;;5091924;28;19990;-84
2023/05/11 10:40:13;;;;;;;;;;;21.30;29.70;;;;;;5091600;28;20723;-85
2023/05/11 10:42:38;;;;;;;;;;;21.10;30.40;;;;;;5092385;28;19904;-85
2023/05/11 10:45:12;;;;;;;;;;;20.90;30.70;;;;;;5091548;28;19904;-84
2023/05/11 10:47:41;;;;;;;;;;;20.90;32.50;;;;;;5092361;28;20352;-83
2023/05/11 10:50:23;;;;;;;;;;;21.00;31.00;;;;;;5091442;28;19987;-84
2023/05/11 10:52:48;;;;;;;;;;;21.00;33.10;;;;;;5092379;28;19998;-84
2023/05/11 10:55:26;;;;;;;;;;;21.10;31.30;;;;;;5091371;28;20003;-84
2023/05/11 10:57:55;;;;;;;;;;;21.20;32.00;;;;;;5093214;28;19918;-84
2023/05/11 11:00:29;;;;;;;;;;;21.10;28.80;;;;;;5091670;28;19926;-85
2023/05/11 11:02:55;;;;;;;;;;;21.10;28.30;;;;;;5091159;28;19912;-86
2023/05/11 11:05:35;;;;;;;;;;;21.00;29.70;;;;;;5091263;28;20395;-85
2023/05/11 11:08:06;;;;;;;;;;;20.60;30.50;;;;;;5090863;28;19927;-84
2023/05/11 11:10:36;;;;;;;;;;;20.70;31.20;;;;;;5090978;28;20400;-86
2023/05/11 11:13:01;;;;;;;;;;;20.90;30.00;;;;;;5091259;28;19930;-84
2023/05/11 11:15:47;;;;;;;;;;;20.70;29.20;;;;;;5092184;28;20178;-83
2023/05/11 11:18:19;;;;;;;;;;;20.70;30.20;;;;;;5090724;28;19919;-83
2023/05/11 11:20:46;;;;;;;;;;;20.80;30.20;;;;;;5091105;28;19908;-84
2023/05/11 11:23:31;;;;;;;;;;;20.90;30.60;;;;;;5090902;28;20340;-83
2023/05/11 11:25:57;;;;;;;;;;;21.10;30.70;;;;;;5090585;28;19973;-84
2023/05/11 11:28:23;;;;;;;;;;;21.00;30.70;;;;;;5091575;28;20364;-84
2023/05/11 11:31:09;;;;;;;;;;;20.90;30.80;;;;;;5090525;28;19950;-84
2023/05/11 11:33:34;;;;;;;;;;;20.90;31.90;;;;;;5090350;28;20010;-84
2023/05/11 11:36:00;;;;;;;;;;;21.00;31.70;;;;;;5090964;28;20007;-85
2023/05/11 11:38:26;;;;;;;;;;;21.10;29.90;;;;;;5091039;28;19912;-84
2023/05/11 11:40:51;;;;;;;;;;;21.10;28.90;;;;;;5092975;28;19912;-84
2023/05/11 11:43:23;;;;;;;;;;;20.90;29.70;;;;;;5093532;28;19916;-85
2023/05/11 11:45:55;;;;;;;;;;;20.80;30.00;;;;;;5090762;28;20319;-85
2023/05/11 11:48:34;;;;;;;;;;;20.90;29.80;;;;;;5089075;28;20284;-83
2023/05/11 11:51:04;;;;;;;;;;;21.20;30.20;;;;;;5090884;28;19908;-84
2023/05/11 11:53:36;;;;;;;;;;;21.40;31.00;;;;;;5090779;28;19908;-83
2023/05/11 11:56:02;;;;;;;;;;;21.20;28.70;;;;;;5091196;28;20411;-84
2023/05/11 11:58:40;;;;;;;;;;;20.90;29.90;;;;;;5090349;28;19939;-84
2023/05/11 12:01:06;;;;;;;;;;;20.90;29.70;;;;;;5090194;28;19912;-83
2023/05/11 12:03:35;;;;;;;;;;;21.10;28.90;;;;;;5089351;28;20014;-83
2023/05/11 12:06:01;;;;;;;;;;;21.30;28.30;;;;;;5090197;28;19908;-83
2023/05/11 12:08:32;;;;;;;;;;;21.60;29.10;;;;;;5090209;28;20372;-82
2023/05/11 12:10:58;;;;;;;;;;;21.80;29.00;;;;;;5090259;28;19908;-82
2023/05/11 12:13:24;;;;;;;;;;;22.10;27.80;;;;;;5090116;28;20186;-83
2023/05/11 12:16:06;;;;;;;;;;;22.20;28.00;;;;;;5089619;28;19910;-83
2023/05/11 12:18:31;;;;;;;;;;;22.10;28.20;;;;;;5089577;28;19904;-83
2023/05/11 12:20:57;;;;;;;;;;;22.00;26.50;;;;;;5090110;28;20640;-83
2023/05/11 12:23:22;;;;;;;;;;;21.80;25.80;;;;;;5089307;28;19912;-82
2023/05/11 12:25:59;;;;;;;;;;;21.50;25.90;;;;;;5089782;28;19923;-84
2023/05/11 12:28:24;;;;;;;;;;;21.40;26.10;;;;;;5089771;28;19954;-83
2023/05/11 12:30:54;;;;;;;;;;;21.30;25.80;;;;;;5089315;28;19912;-82
2023/05/11 12:33:20;;;;;;;;;;;21.40;26.50;;;;;;5089589;28;19955;-83
2023/05/11 12:35:50;;;;;;;;;;;21.40;24.70;;;;;;5089183;28;20418;-83
2023/05/11 12:38:16;;;;;;;;;;;21.10;25.90;;;;;;5089498;28;19908;-84
2023/05/11 12:40:46;;;;;;;;;;;21.20;25.00;;;;;;5089269;28;19908;-84
2023/05/11 12:43:15;;;;;;;;;;;20.90;25.30;;;;;;5089035;28;19916;-83
2023/05/11 12:45:41;;;;;;;;;;;20.90;25.50;;;;;;5089079;28;19955;-83
2023/05/11 12:48:07;;;;;;;;;;;20.90;26.70;;;;;;5089727;28;19985;-85
2023/05/11 12:50:38;;;;;;;;;;;21.00;26.20;;;;;;5089193;28;19911;-83
2023/05/11 12:53:13;;;;;;;;;;;21.10;26.20;;;;;;5089514;28;19904;-84
2023/05/11 12:55:40;;;;;;;;;;;21.30;26.20;;;;;;5089102;28;19988;-83
2023/05/11 12:58:06;;;;;;;;;;;21.40;25.40;;;;;;5089886;28;19911;-84
2023/05/11 13:00:32;;;;;;;;;;;21.40;25.80;;;;;;5088774;28;19912;-82
2023/05/11 13:02:57;;;;;;;;;;;21.50;26.50;;;;;;5089121;28;19908;-84
2023/05/11 13:05:24;;;;;;;;;;;21.40;25.00;;;;;;5088895;28;19915;-83
2023/05/11 13:08:00;;;;;;;;;;;21.40;25.90;;;;;;5089123;28;19908;-82
2023/05/11 13:10:25;;;;;;;;;;;21.20;26.00;;;;;;5089105;28;19904;-83
2023/05/11 13:12:51;;;;;;;;;;;21.40;25.40;;;;;;5088977;28;19910;-84
2023/05/11 13:15:18;;;;;;;;;;;21.40;25.40;;;;;;5091261;28;19908;-83
2023/05/11 13:17:43;;;;;;;;;;;21.50;25.50;;;;;;5093202;28;19904;-83
2023/05/11 13:20:19;;;;;;;;;;;21.40;25.20;;;;;;5093157;28;19922;-83
2023/05/11 13:22:45;;;;;;;;;;;21.30;25.60;;;;;;5093004;28;19907;-83
2023/05/11 13:25:11;;;;;;;;;;;21.50;26.30;;;;;;5093970;28;19920;-84
2023/05/11 13:27:37;;;;;;;;;;;21.60;26.40;;;;;;5092818;28;20393;-84
2023/05/11 13:30:03;;;;;;;;;;;21.60;25.80;;;;;;5094100;28;19912;-84
2023/05/11 13:32:29;;;;;;;;;;;21.70;25.30;;;;;;5093115;28;19951;-83
2023/05/11 13:34:54;;;;;;;;;;;21.60;25.50;;;;;;5092865;28;19958;-84
2023/05/11 13:37:20;;;;;;;;;;;21.50;24.70;;;;;;5092623;28;20286;-83
2023/05/11 13:39:45;;;;;;;;;;;21.70;25.90;;;;;;5094115;28;19911;-84
2023/05/11 13:42:11;;;;;;;;;;;21.70;24.40;;;;;;5092499;28;19908;-82
2023/05/11 13:44:36;;;;;;;;;;;21.60;24.00;;;;;;5092277;28;19916;-83
2023/05/11 13:47:02;;;;;;;;;;;21.50;24.10;;;;;;5092520;28;19912;-84
2023/05/11 13:49:27;;;;;;;;;;;21.40;24.40;;;;;;5092257;28;20019;-84
2023/05/11 13:51:54;;;;;;;;;;;21.40;24.70;;;;;;5092717;28;19907;-83
2023/05/11 13:54:20;;;;;;;;;;;21.50;24.30;;;;;;5092715;28;19908;-84
2023/05/11 13:56:46;;;;;;;;;;;21.30;25.30;;;;;;5092376;28;20391;-83
2023/05/11 13:59:11;;;;;;;;;;;21.30;24.60;;;;;;5092239;28;19911;-82
2023/05/11 14:01:37;;;;;;;;;;;21.30;24.70;;;;;;5092089;28;20408;-85
2023/05/11 14:04:03;;;;;;;;;;;21.30;25.00;;;;;;5092731;28;19923;-84
2023/05/11 14:06:30;;;;;;;;;;;21.30;24.80;;;;;;5092425;28;19911;-84
2023/05/11 14:08:56;;;;;;;;;;;21.30;24.90;;;;;;5092129;28;20380;-83
2023/05/11 14:11:21;;;;;;;;;;;21.30;25.00;;;;;;5092770;28;19919;-84
2023/05/11 14:13:47;;;;;;;;;;;21.30;25.10;;;;;;5093409;28;19904;-84
2023/05/11 14:16:13;;;;;;;;;;;21.30;25.20;;;;;;5092206;28;19919;-84